Beloit, Kansas
Current Conditions -  °F | °C
As of 9:55 AM on Thursday 30 Oct 2014 (Local Time) from KCNK Reporting Station
Clear Clear  
Wind Chill: 54°   Ceiling: Unl
Heat Index: 54°   Visibility: 10mi
Dew Point: 38°   Wind: 8mph
Humidity: 55%   Direction: 310°NW
Pressure: 30.14"   Gusts: NA
Location:  39.46°N, 98.11°W
Report Text: KCNK 301455Z AUTO 31007KT 10SM CLR 12/03 A3014 RMK AO2 SLP202 T01220033 51028
Loading
Personal Weather Stations






























Interactive Weather Map New forecast layout! Learn more

10-Day Weather Forecast

Advertisements
Track Severe Weather on mobile